Time;durP1;ratioP1;P1;durP2;ratioP2;P2;SDS_P1;SDS_P2;PMS_P1;PMS_P2;Temp;Humidity;BMP_temperature;BMP_pressure;BME280_temperature;BME280_humidity;BME280_pressure;Samples;Min_cycle;Max_cycle;Signal;HPM_P1;HPM_P2
2023/09/22 00:00:15;;;;;;;3.72;1.80;;;14.40;99.90;;;;;;5035506;28;20099;-78
2023/09/22 00:02:44;;;;;;;1.92;1.55;;;14.50;99.90;;;;;;5035115;28;20515;-79
2023/09/22 00:05:13;;;;;;;3.80;1.88;;;14.50;99.90;;;;;;5034923;28;20056;-78
2023/09/22 00:07:40;;;;;;;2.38;1.70;;;14.50;99.90;;;;;;5034786;28;20091;-78
2023/09/22 00:10:07;;;;;;;3.03;1.90;;;14.50;99.90;;;;;;5035400;28;20099;-78
2023/09/22 00:12:33;;;;;;;2.83;2.05;;;14.60;99.90;;;;;;5034882;28;20041;-79
2023/09/22 00:15:01;;;;;;;2.28;1.90;;;14.60;99.90;;;;;;5033654;28;20049;-78
2023/09/22 00:17:27;;;;;;;3.38;1.77;;;14.50;99.90;;;;;;5034345;28;20077;-79
2023/09/22 00:19:53;;;;;;;3.72;2.10;;;14.50;99.90;;;;;;5034578;28;20057;-79
2023/09/22 00:22:19;;;;;;;2.13;1.92;;;14.60;99.90;;;;;;5033984;28;20054;-77
2023/09/22 00:24:45;;;;;;;1.98;1.88;;;14.60;99.90;;;;;;5033834;28;20045;-79
2023/09/22 00:27:11;;;;;;;2.67;2.30;;;14.60;99.90;;;;;;5034664;28;20486;-79
2023/09/22 00:29:37;;;;;;;3.60;2.20;;;14.60;99.90;;;;;;5034444;28;20049;-79
2023/09/22 00:32:03;;;;;;;4.47;3.13;;;14.60;99.90;;;;;;5033936;28;20053;-79
2023/09/22 00:34:31;;;;;;;6.43;4.10;;;14.60;99.90;;;;;;5034329;28;20139;-78
2023/09/22 00:36:57;;;;;;;4.95;3.55;;;14.60;99.90;;;;;;5034306;28;20125;-79
2023/09/22 00:39:23;;;;;;;5.03;3.53;;;14.60;99.90;;;;;;5033236;28;20131;-79
2023/09/22 00:41:49;;;;;;;7.00;5.78;;;14.60;99.90;;;;;;5034357;28;20041;-79
2023/09/22 00:44:15;;;;;;;8.88;5.80;;;14.70;99.90;;;;;;5034633;28;20057;-78
2023/09/22 00:46:41;;;;;;;8.77;6.82;;;14.70;99.90;;;;;;5033983;28;20147;-79
2023/09/22 00:49:07;;;;;;;8.55;6.95;;;14.70;99.90;;;;;;5034287;28;20130;-79
2023/09/22 00:51:34;;;;;;;7.82;5.95;;;14.70;99.90;;;;;;5033945;28;20045;-79
2023/09/22 00:54:01;;;;;;;13.90;8.93;;;14.60;99.90;;;;;;5034200;28;20423;-79
2023/09/22 00:56:27;;;;;;;13.75;9.95;;;14.60;99.90;;;;;;5033934;28;20064;-79
2023/09/22 00:58:54;;;;;;;14.88;10.95;;;14.70;99.90;;;;;;5033777;28;20152;-79
2023/09/22 01:01:24;;;;;;;14.15;11.68;;;14.70;99.90;;;;;;5033888;28;20179;-77
2023/09/22 01:03:51;;;;;;;14.82;11.57;;;14.70;99.90;;;;;;5033863;28;20045;-78
2023/09/22 01:06:17;;;;;;;13.82;11.15;;;14.70;99.90;;;;;;5033402;28;20110;-78
2023/09/22 01:08:43;;;;;;;15.18;11.88;;;14.60;99.90;;;;;;5033725;28;20041;-79
2023/09/22 01:11:09;;;;;;;16.20;13.25;;;14.70;99.90;;;;;;5033992;28;20053;-78
2023/09/22 01:13:34;;;;;;;16.23;13.50;;;14.70;99.90;;;;;;5033589;28;20038;-78
2023/09/22 01:16:00;;;;;;;19.10;15.18;;;14.70;99.90;;;;;;5032610;28;20466;-77
2023/09/22 01:18:26;;;;;;;17.45;12.18;;;14.70;99.90;;;;;;5033866;28;20084;-79
2023/09/22 01:20:54;;;;;;;15.10;12.98;;;14.70;99.90;;;;;;5033356;28;20053;-79
2023/09/22 01:23:20;;;;;;;15.35;12.68;;;14.70;99.90;;;;;;5033440;28;20085;-78
2023/09/22 01:25:46;;;;;;;18.15;13.75;;;14.70;99.90;;;;;;5033230;28;20053;-78
2023/09/22 01:28:12;;;;;;;19.23;15.50;;;14.70;99.90;;;;;;5033099;28;20451;-79
2023/09/22 01:30:42;;;;;;;17.58;14.95;;;14.70;99.90;;;;;;5032688;28;20050;-78
2023/09/22 01:33:08;;;;;;;20.67;15.68;;;14.70;99.90;;;;;;5033317;28;20088;-78
2023/09/22 01:35:35;;;;;;;22.15;18.00;;;14.80;99.90;;;;;;5033154;28;20046;-78
2023/09/22 01:38:23;;;;;;;21.27;14.90;;;14.70;99.90;;;;;;5033605;28;20097;-78
2023/09/22 01:40:50;;;;;;;17.63;13.68;;;14.80;99.90;;;;;;5033372;28;20103;-78
2023/09/22 01:43:16;;;;;;;19.40;16.33;;;14.80;99.90;;;;;;5032937;28;20491;-78
2023/09/22 01:45:43;;;;;;;17.98;15.25;;;14.80;99.90;;;;;;5032969;28;20458;-79
2023/09/22 01:48:10;;;;;;;19.60;17.00;;;14.80;99.90;;;;;;5033329;28;20072;-79
2023/09/22 01:50:39;;;;;;;18.50;15.77;;;14.80;99.90;;;;;;5032801;28;20117;-78
2023/09/22 01:53:09;;;;;;;19.52;15.95;;;14.80;99.90;;;;;;5032909;28;20044;-78
2023/09/22 01:55:36;;;;;;;24.48;17.75;;;14.70;99.90;;;;;;5032204;28;20049;-78
2023/09/22 01:58:04;;;;;;;24.48;18.33;;;14.80;99.90;;;;;;5016043;28;20053;-78
2023/09/22 02:00:33;;;;;;;24.30;18.05;;;14.80;99.90;;;;;;5032758;28;20051;-78
2023/09/22 02:03:02;;;;;;;23.27;18.52;;;14.70;99.90;;;;;;5033348;28;20068;-78
2023/09/22 02:05:29;;;;;;;24.92;18.52;;;14.70;99.90;;;;;;5032750;28;20159;-79
2023/09/22 02:07:57;;;;;;;24.63;18.40;;;14.70;99.90;;;;;;5033130;28;20053;-78
2023/09/22 02:10:23;;;;;;;23.52;19.52;;;14.70;99.90;;;;;;5033075;28;20057;-78
2023/09/22 02:12:49;;;;;;;23.65;19.13;;;14.70;99.90;;;;;;5033163;28;20118;-79
2023/09/22 02:15:14;;;;;;;19.90;16.85;;;14.60;99.90;;;;;;5033065;28;20091;-78
2023/09/22 02:17:41;;;;;;;25.08;19.23;;;14.60;99.90;;;;;;5032528;28;20045;-79
2023/09/22 02:20:24;;;;;;;24.60;19.88;;;14.60;99.90;;;;;;5032568;28;20057;-78
2023/09/22 02:22:51;;;;;;;21.33;17.70;;;14.60;99.90;;;;;;5032851;28;20045;-78
2023/09/22 02:25:17;;;;;;;23.90;18.15;;;14.50;99.90;;;;;;5031078;28;20548;-78
2023/09/22 02:27:44;;;;;;;21.52;17.23;;;14.50;99.90;;;;;;5032462;28;20057;-78
2023/09/22 02:30:10;;;;;;;23.02;19.23;;;14.50;99.90;;;;;;5032549;28;20084;-78
2023/09/22 02:32:38;;;;;;;22.85;19.15;;;14.60;99.90;;;;;;5032503;28;20065;-78
2023/09/22 02:35:04;;;;;;;21.25;18.10;;;14.60;99.90;;;;;;5032890;28;20060;-79
2023/09/22 02:37:30;;;;;;;21.58;18.88;;;14.50;99.90;;;;;;5031614;28;20049;-78
2023/09/22 02:39:56;;;;;;;22.00;18.55;;;14.40;99.90;;;;;;5032624;28;20398;-79
2023/09/22 02:42:21;;;;;;;21.85;17.88;;;14.40;99.90;;;;;;5036285;28;20056;-78
2023/09/22 02:44:47;;;;;;;26.02;20.70;;;14.40;99.90;;;;;;5036377;28;20052;-79
2023/09/22 02:47:13;;;;;;;23.08;18.90;;;14.40;99.90;;;;;;5035128;28;20132;-79
2023/09/22 02:49:38;;;;;;;22.00;19.55;;;14.30;99.90;;;;;;5036348;28;20045;-78
2023/09/22 02:52:04;;;;;;;25.65;18.80;;;14.30;99.90;;;;;;5035969;28;20080;-78
2023/09/22 02:54:30;;;;;;;20.65;17.88;;;14.40;99.90;;;;;;5036002;28;20121;-78
2023/09/22 02:56:55;;;;;;;23.38;20.33;;;14.40;99.90;;;;;;5036089;28;20099;-78
2023/09/22 02:59:22;;;;;;;24.45;19.45;;;14.50;99.90;;;;;;5036766;28;20049;-78
2023/09/22 03:01:49;;;;;;;23.38;19.40;;;14.40;99.90;;;;;;5036088;28;20053;-78
2023/09/22 03:04:15;;;;;;;23.13;17.95;;;14.50;99.90;;;;;;5036050;28;20052;-79
2023/09/22 03:06:41;;;;;;;26.95;19.05;;;14.50;99.90;;;;;;5036083;28;20071;-78
2023/09/22 03:09:07;;;;;;;23.15;18.67;;;14.60;99.90;;;;;;5036619;28;20556;-78
2023/09/22 03:11:33;;;;;;;24.45;19.60;;;14.60;99.90;;;;;;5036145;28;20049;-78
2023/09/22 03:13:59;;;;;;;19.50;16.25;;;14.60;99.90;;;;;;5035915;28;20042;-78
2023/09/22 03:16:29;;;;;;;27.23;20.83;;;14.50;99.90;;;;;;5034546;28;20049;-78
2023/09/22 03:18:54;;;;;;;26.40;19.95;;;14.60;99.90;;;;;;5035797;28;20051;-78
2023/09/22 03:21:22;;;;;;;22.42;17.73;;;14.60;99.90;;;;;;5035714;28;20084;-78
2023/09/22 03:23:54;;;;;;;23.77;18.45;;;14.60;99.90;;;;;;5035620;28;20569;-79
2023/09/22 03:26:21;;;;;;;20.55;16.02;;;14.60;99.90;;;;;;5035607;28;20119;-79
2023/09/22 03:28:47;;;;;;;21.60;17.25;;;14.60;99.90;;;;;;5035479;28;20103;-78
2023/09/22 03:31:13;;;;;;;22.13;17.27;;;14.50;99.90;;;;;;5035868;28;20125;-78
2023/09/22 03:33:42;;;;;;;22.30;17.17;;;14.50;99.90;;;;;;5035526;28;20047;-78
2023/09/22 03:36:12;;;;;;;23.73;17.38;;;14.50;99.90;;;;;;5035368;28;20470;-78
2023/09/22 03:38:41;;;;;;;23.17;16.58;;;14.40;99.90;;;;;;5035968;28;20049;-78
2023/09/22 03:41:07;;;;;;;20.85;15.95;;;14.40;99.90;;;;;;5035929;28;20049;-78
2023/09/22 03:43:34;;;;;;;21.70;16.90;;;14.40;99.90;;;;;;5034008;28;20506;-78
2023/09/22 03:46:00;;;;;;;20.88;15.90;;;14.30;99.90;;;;;;5035285;28;20470;-78
2023/09/22 03:48:26;;;;;;;20.02;15.90;;;14.30;99.90;;;;;;5034788;28;20536;-78
2023/09/22 03:50:53;;;;;;;18.10;16.00;;;14.20;99.90;;;;;;5035521;28;20077;-78
2023/09/22 03:53:19;;;;;;;23.10;17.13;;;14.20;99.90;;;;;;5034232;28;20463;-77
2023/09/22 03:55:45;;;;;;;20.27;16.75;;;14.10;99.90;;;;;;5035113;28;20075;-78
2023/09/22 03:58:11;;;;;;;23.05;16.67;;;14.00;99.90;;;;;;5034775;28;20546;-78
2023/09/22 04:00:37;;;;;;;20.88;16.40;;;14.00;99.90;;;;;;5034937;28;20057;-78
2023/09/22 04:03:07;;;;;;;21.98;16.38;;;14.00;99.90;;;;;;5035343;28;20042;-78
2023/09/22 04:05:33;;;;;;;24.38;19.50;;;14.00;99.90;;;;;;5034114;28;20494;-78
2023/09/22 04:08:00;;;;;;;23.08;17.90;;;14.00;99.90;;;;;;5034871;28;20057;-78
2023/09/22 04:10:26;;;;;;;20.00;16.38;;;14.00;99.90;;;;;;5034730;28;20071;-78
2023/09/22 04:12:52;;;;;;;26.23;18.05;;;14.10;99.90;;;;;;5034802;28;20442;-77
2023/09/22 04:15:17;;;;;;;22.80;18.20;;;14.20;99.90;;;;;;5034741;28;20049;-78
2023/09/22 04:17:45;;;;;;;24.70;19.80;;;14.10;99.90;;;;;;5017506;28;20053;-77
2023/09/22 04:20:12;;;;;;;24.73;18.42;;;14.20;99.90;;;;;;5034528;28;20053;-78
2023/09/22 04:22:39;;;;;;;21.35;16.52;;;14.20;99.90;;;;;;5034736;28;20108;-78
2023/09/22 04:25:13;;;;;;;26.00;21.00;;;14.20;99.90;;;;;;5034252;28;20050;-78
2023/09/22 04:27:47;;;;;;;23.45;16.75;;;14.20;99.90;;;;;;5034226;28;20382;-78
2023/09/22 04:30:16;;;;;;;22.77;16.60;;;14.20;99.90;;;;;;5035093;28;20045;-78
2023/09/22 04:32:45;;;;;;;22.10;16.23;;;14.20;99.90;;;;;;5034242;28;20041;-79
2023/09/22 04:35:11;;;;;;;22.73;16.08;;;14.10;99.90;;;;;;5033886;28;20077;-78
2023/09/22 04:37:37;;;;;;;24.15;18.48;;;14.10;99.90;;;;;;5034069;28;20557;-80
2023/09/22 04:40:09;;;;;;;23.45;16.80;;;14.10;99.90;;;;;;5033193;28;20184;-80
2023/09/22 04:42:35;;;;;;;21.52;16.48;;;14.10;99.90;;;;;;5034368;28;20038;-80
2023/09/22 04:45:01;;;;;;;25.15;18.27;;;14.00;99.90;;;;;;5033948;28;20191;-79
2023/09/22 04:47:26;;;;;;;27.45;19.85;;;14.00;99.90;;;;;;5034228;28;20069;-79
2023/09/22 04:49:52;;;;;;;28.80;19.00;;;14.00;99.90;;;;;;5032890;28;20140;-77
2023/09/22 04:52:18;;;;;;;26.77;19.00;;;14.00;99.90;;;;;;5033065;28;20068;-80
2023/09/22 04:54:43;;;;;;;30.58;18.88;;;14.00;99.90;;;;;;5032789;28;20398;-79
2023/09/22 04:57:09;;;;;;;28.35;19.73;;;13.90;99.90;;;;;;5034023;28;20378;-78
2023/09/22 04:59:35;;;;;;;33.78;19.42;;;13.90;99.90;;;;;;5033810;28;20071;-81
2023/09/22 05:02:01;;;;;;;27.05;19.48;;;13.90;99.90;;;;;;5033404;28;20507;-80
2023/09/22 05:04:29;;;;;;;30.75;21.75;;;13.90;99.90;;;;;;5032708;28;20120;-78
2023/09/22 05:06:54;;;;;;;27.90;20.00;;;13.90;99.90;;;;;;5033551;28;20049;-81
2023/09/22 05:09:20;;;;;;;27.70;19.80;;;13.90;99.90;;;;;;5034004;28;20056;-80
2023/09/22 05:11:46;;;;;;;29.73;21.05;;;13.80;99.90;;;;;;5033648;28;20391;-80
2023/09/22 05:14:12;;;;;;;26.85;19.08;;;13.80;99.90;;;;;;5016096;28;20446;-81
2023/09/22 05:16:38;;;;;;;28.35;20.08;;;13.80;99.90;;;;;;5033433;28;20081;-78
2023/09/22 05:19:03;;;;;;;28.63;20.05;;;13.80;99.90;;;;;;5033177;28;20053;-79
2023/09/22 05:21:29;;;;;;;28.30;19.23;;;13.80;99.90;;;;;;5033277;28;20048;-80
2023/09/22 05:23:55;;;;;;;29.15;19.80;;;13.70;99.90;;;;;;5032921;28;20121;-81
2023/09/22 05:26:21;;;;;;;28.55;17.55;;;13.70;99.90;;;;;;5033642;28;20053;-81
2023/09/22 05:28:47;;;;;;;27.20;19.63;;;13.70;99.90;;;;;;5033064;28;20076;-79
2023/09/22 05:31:12;;;;;;;28.15;19.27;;;13.60;99.90;;;;;;5033825;28;20041;-79
2023/09/22 05:33:38;;;;;;;25.00;19.10;;;13.60;99.90;;;;;;5033578;28;20409;-80
2023/09/22 05:36:05;;;;;;;30.33;21.67;;;13.60;99.90;;;;;;5032924;28;20454;-80
2023/09/22 05:38:31;;;;;;;30.40;21.20;;;13.60;99.90;;;;;;5033616;28;20110;-79
2023/09/22 05:40:56;;;;;;;30.52;21.20;;;13.60;99.90;;;;;;5031738;28;20049;-80
2023/09/22 05:43:22;;;;;;;32.20;21.30;;;13.60;99.90;;;;;;5032901;28;20092;-80
2023/09/22 05:45:55;;;;;;;31.23;21.42;;;13.60;99.90;;;;;;5033320;28;20060;-82
2023/09/22 05:48:21;;;;;;;29.80;21.75;;;13.60;99.90;;;;;;5033132;28;20048;-80
2023/09/22 05:50:56;;;;;;;30.80;21.08;;;13.60;99.90;;;;;;5033041;28;20080;-80
2023/09/22 05:53:24;;;;;;;28.50;21.95;;;13.70;99.90;;;;;;5032640;28;20497;-78
2023/09/22 05:56:03;;;;;;;29.73;21.15;;;13.60;99.90;;;;;;5033243;28;20076;-81
2023/09/22 05:58:29;;;;;;;36.25;23.10;;;13.70;99.90;;;;;;5032772;28;20421;-80
2023/09/22 06:00:57;;;;;;;33.50;24.20;;;13.70;99.90;;;;;;5032372;28;20061;-81
2023/09/22 06:03:22;;;;;;;30.42;22.67;;;13.70;99.90;;;;;;5032515;28;20060;-81
2023/09/22 06:05:49;;;;;;;36.70;24.25;;;13.70;99.90;;;;;;5032722;28;20045;-80
2023/09/22 06:08:15;;;;;;;37.33;24.17;;;13.70;99.90;;;;;;5032733;28;20049;-80
2023/09/22 06:10:43;;;;;;;37.05;25.60;;;13.80;99.90;;;;;;5032630;28;20085;-80
2023/09/22 06:13:09;;;;;;;33.28;23.65;;;13.70;99.90;;;;;;5032793;28;20092;-80
2023/09/22 06:15:35;;;;;;;37.35;24.92;;;13.80;99.90;;;;;;5032092;28;20451;-79
2023/09/22 06:18:00;;;;;;;37.60;23.73;;;13.80;99.90;;;;;;5032559;28;20091;-80
2023/09/22 06:20:26;;;;;;;34.95;23.52;;;13.80;99.90;;;;;;5032505;28;20125;-80
2023/09/22 06:22:52;;;;;;;28.02;21.23;;;13.90;99.90;;;;;;5032161;28;20049;-80
2023/09/22 06:25:18;;;;;;;30.30;20.05;;;13.90;99.90;;;;;;5032162;28;20049;-80
2023/09/22 06:27:44;;;;;;;33.42;21.50;;;13.80;99.90;;;;;;5032901;28;20057;-80
2023/09/22 06:30:13;;;;;;;30.00;21.85;;;13.90;99.90;;;;;;5032847;28;20064;-80
2023/09/22 06:32:43;;;;;;;31.00;20.40;;;13.90;99.90;;;;;;5032600;28;20045;-81
2023/09/22 06:35:09;;;;;;;33.05;22.58;;;13.90;99.90;;;;;;5032461;28;20057;-80
2023/09/22 06:37:36;;;;;;;30.52;20.83;;;14.00;99.90;;;;;;5031628;28;20049;-81
2023/09/22 06:40:10;;;;;;;30.95;20.73;;;13.20;99.90;;;;;;5031767;28;20064;-80
2023/09/22 06:42:44;;;;;;;25.92;17.75;;;14.00;99.90;;;;;;5031231;28;20399;-80
2023/09/22 06:45:10;;;;;;;28.98;18.77;;;14.00;99.90;;;;;;5032459;28;20045;-80
2023/09/22 06:47:37;;;;;;;27.15;17.60;;;14.00;99.90;;;;;;5032309;28;20366;-80
2023/09/22 06:50:06;;;;;;;25.52;17.10;;;14.10;99.90;;;;;;5031026;28;20397;-81
2023/09/22 06:52:33;;;;;;;23.00;17.23;;;14.10;99.90;;;;;;5031876;28;20451;-80
2023/09/22 06:55:01;;;;;;;27.17;17.25;;;14.10;99.90;;;;;;5032254;28;20071;-81
2023/09/22 06:57:27;;;;;;;24.02;17.45;;;14.10;99.90;;;;;;5032159;28;20497;-79
2023/09/22 06:59:53;;;;;;;25.33;16.67;;;14.10;99.90;;;;;;5032309;28;20080;-81
2023/09/22 07:02:19;;;;;;;24.98;16.92;;;14.10;99.90;;;;;;5032117;28;20194;-80
2023/09/22 07:04:45;;;;;;;23.38;17.40;;;14.10;99.90;;;;;;5032800;28;20077;-79
2023/09/22 07:07:13;;;;;;;22.67;15.23;;;14.20;99.90;;;;;;5032057;28;20512;-79
2023/09/22 07:09:43;;;;;;;25.85;16.80;;;14.20;99.90;;;;;;5032148;28;20558;-81
2023/09/22 07:12:09;;;;;;;24.73;16.10;;;14.30;99.90;;;;;;5032092;28;20124;-80
2023/09/22 07:14:34;;;;;;;24.30;17.50;;;14.30;99.90;;;;;;5032370;28;20072;-80
2023/09/22 07:17:00;;;;;;;24.08;16.35;;;14.40;99.90;;;;;;5031936;28;20053;-79
2023/09/22 07:19:26;;;;;;;22.05;14.35;;;14.50;99.90;;;;;;5031983;28;20045;-80
2023/09/22 07:21:52;;;;;;;24.38;14.70;;;14.50;99.90;;;;;;5032775;28;20076;-82
2023/09/22 07:24:18;;;;;;;21.58;13.48;;;14.50;99.90;;;;;;5032461;28;20478;-83
2023/09/22 07:26:44;;;;;;;20.60;13.63;;;14.50;99.90;;;;;;5032221;28;20084;-82
2023/09/22 07:29:09;;;;;;;22.13;14.93;;;14.50;99.90;;;;;;5035696;28;20046;-77
2023/09/22 07:31:37;;;;;;;17.85;13.48;;;14.40;99.90;;;;;;5035555;28;20041;-79
2023/09/22 07:34:03;;;;;;;19.40;13.93;;;14.40;99.90;;;;;;5035530;28;20049;-76
2023/09/22 07:36:29;;;;;;;22.38;15.07;;;14.40;99.90;;;;;;5035844;28;20119;-77
2023/09/22 07:38:54;;;;;;;19.20;13.45;;;14.40;99.90;;;;;;5035400;28;20041;-78
2023/09/22 07:41:20;;;;;;;18.27;13.52;;;14.40;99.90;;;;;;5035900;28;20132;-78
2023/09/22 07:43:46;;;;;;;21.30;12.65;;;14.50;99.90;;;;;;5035680;28;20496;-78
2023/09/22 07:46:11;;;;;;;20.25;14.25;;;14.50;99.90;;;;;;5035412;28;20053;-80
2023/09/22 07:48:37;;;;;;;16.73;12.27;;;14.50;99.90;;;;;;5035270;28;20061;-77
2023/09/22 07:51:04;;;;;;;17.50;13.75;;;14.50;99.90;;;;;;5035579;28;20123;-79
2023/09/22 07:53:30;;;;;;;24.50;15.25;;;14.50;99.90;;;;;;5035130;28;20041;-77
2023/09/22 07:55:59;;;;;;;16.98;12.48;;;14.50;99.90;;;;;;5035530;28;20068;-78
2023/09/22 07:58:26;;;;;;;19.80;11.98;;;14.60;99.90;;;;;;5035270;28;20045;-78
2023/09/22 08:00:52;;;;;;;16.20;12.48;;;14.60;99.90;;;;;;5035049;28;20049;-82
2023/09/22 08:03:21;;;;;;;17.85;12.95;;;14.60;99.90;;;;;;5035138;28;20099;-82
2023/09/22 08:05:50;;;;;;;15.95;11.75;;;14.60;99.90;;;;;;5033800;28;20045;-81
2023/09/22 08:08:17;;;;;;;19.75;12.43;;;14.50;99.90;;;;;;5034631;28;20046;-81
2023/09/22 08:10:43;;;;;;;14.82;11.00;;;14.50;99.90;;;;;;5034613;28;20056;-82
2023/09/22 08:13:09;;;;;;;16.60;11.48;;;14.60;99.90;;;;;;5034482;28;20047;-81
2023/09/22 08:15:37;;;;;;;14.13;10.70;;;14.60;99.90;;;;;;5034368;28;20053;-81
2023/09/22 08:18:05;;;;;;;13.02;9.75;;;14.70;99.90;;;;;;5034369;28;20049;-82
2023/09/22 08:20:35;;;;;;;12.38;8.93;;;14.70;99.90;;;;;;5033467;28;20587;-83
2023/09/22 08:23:01;;;;;;;14.02;9.27;;;14.70;99.90;;;;;;5033022;28;20041;-81
2023/09/22 08:25:27;;;;;;;12.30;8.35;;;14.80;99.90;;;;;;5033738;28;20444;-82
2023/09/22 08:27:54;;;;;;;12.57;10.05;;;14.80;99.90;;;;;;5034520;28;20050;-82
2023/09/22 08:30:20;;;;;;;12.45;7.50;;;15.00;99.90;;;;;;5034548;28;20052;-80
2023/09/22 08:32:46;;;;;;;11.77;8.02;;;15.00;99.90;;;;;;5034192;28;20037;-82
2023/09/22 08:35:15;;;;;;;9.95;7.18;;;15.00;99.90;;;;;;5034197;28;20068;-83
2023/09/22 08:37:42;;;;;;;10.90;6.85;;;15.10;99.90;;;;;;5034134;28;20156;-82
2023/09/22 08:40:11;;;;;;;15.25;7.72;;;15.10;99.90;;;;;;5034442;28;20052;-81
2023/09/22 08:42:37;;;;;;;12.65;8.07;;;15.10;99.90;;;;;;5033837;28;20051;-81
2023/09/22 08:45:07;;;;;;;17.17;7.32;;;15.10;99.90;;;;;;5033951;28;20057;-80
2023/09/22 08:47:39;;;;;;;12.13;7.50;;;15.10;99.90;;;;;;5034140;28;20120;-82
2023/09/22 08:50:11;;;;;;;11.32;7.47;;;15.10;99.90;;;;;;5033949;28;20049;-83
2023/09/22 08:52:41;;;;;;;9.15;6.90;;;15.20;99.90;;;;;;5033966;28;20049;-83
2023/09/22 08:55:11;;;;;;;8.80;6.50;;;15.30;99.90;;;;;;5033822;28;20165;-78
2023/09/22 08:57:40;;;;;;;9.20;5.63;;;15.30;99.90;;;;;;5034303;28;20049;-81
2023/09/22 09:00:12;;;;;;;9.50;5.32;;;15.30;99.90;;;;;;5032644;28;20052;-82
2023/09/22 09:02:38;;;;;;;7.22;5.20;;;15.40;99.90;;;;;;5033236;28;20473;-83
2023/09/22 09:05:19;;;;;;;6.85;3.70;;;15.50;99.90;;;;;;5032594;28;20154;-83
2023/09/22 09:07:46;;;;;;;4.25;3.72;;;15.50;99.90;;;;;;5033492;28;20504;-82
2023/09/22 09:10:25;;;;;;;6.50;4.43;;;15.60;99.90;;;;;;5032465;28;20053;-81
2023/09/22 09:12:51;;;;;;;5.30;4.65;;;15.70;99.90;;;;;;5034259;28;20041;-81
2023/09/22 09:15:16;;;;;;;6.97;4.40;;;15.80;99.90;;;;;;5033930;28;20531;-81
2023/09/22 09:17:42;;;;;;;4.93;4.18;;;16.00;99.90;;;;;;5033899;28;20483;-82
2023/09/22 09:20:08;;;;;;;5.15;4.25;;;16.50;99.90;;;;;;5033541;28;20045;-83
2023/09/22 09:22:37;;;;;;;4.57;3.80;;;17.80;99.90;;;;;;5033354;28;20112;-82
2023/09/22 09:25:06;;;;;;;5.68;3.83;;;19.00;99.90;;;;;;5032466;28;20125;-83
2023/09/22 09:27:32;;;;;;;5.18;3.28;;;20.30;99.90;;;;;;5032733;28;20089;-79
2023/09/22 09:29:58;;;;;;;3.08;2.67;;;21.40;99.90;;;;;;5033260;28;20056;-74
2023/09/22 09:32:26;;;;;;;3.20;2.15;;;22.00;99.90;;;;;;5032922;28;20045;-80
2023/09/22 09:34:52;;;;;;;2.92;2.42;;;22.30;99.90;;;;;;5032546;28;20362;-80
2023/09/22 09:37:19;;;;;;;3.85;2.15;;;22.60;99.90;;;;;;5033028;28;20045;-80
2023/09/22 09:39:51;;;;;;;2.22;2.00;;;22.30;99.90;;;;;;5032884;28;20049;-81
2023/09/22 09:42:18;;;;;;;4.15;1.95;;;22.70;99.90;;;;;;5033258;28;20095;-79
2023/09/22 09:44:49;;;;;;;2.75;2.50;;;22.50;99.90;;;;;;5032833;28;20045;-81
2023/09/22 09:47:24;;;;;;;1.90;1.80;;;22.40;99.90;;;;;;5033422;28;20416;-81
2023/09/22 09:49:55;;;;;;;4.13;2.72;;;22.30;99.90;;;;;;5031471;28;20058;-80
2023/09/22 09:52:55;;;;;;;3.10;2.33;;;22.70;99.90;;;;;;5033392;28;20050;-81
2023/09/22 09:55:21;;;;;;;3.75;3.55;;;22.40;99.90;;;;;;5028305;28;20103;-82
2023/09/22 09:57:52;;;;;;;3.67;2.28;;;21.70;99.90;;;;;;5033103;28;20041;-83
2023/09/22 10:00:21;;;;;;;2.90;1.88;;;20.60;99.90;;;;;;5033059;28;20076;-80
2023/09/22 10:02:49;;;;;;;3.38;2.13;;;19.80;99.90;;;;;;5032640;28;20041;-79
2023/09/22 10:05:20;;;;;;;1.98;1.80;;;19.20;99.90;;;;;;5032776;28;20120;-81
2023/09/22 10:07:48;;;;;;;2.80;1.90;;;20.10;99.90;;;;;;5032493;28;20061;-79
2023/09/22 10:10:21;;;;;;;1.70;1.50;;;21.30;99.90;;;;;;5036826;28;20052;-79
2023/09/22 10:12:47;;;;;;;3.03;1.90;;;22.40;99.90;;;;;;5042128;28;20056;-79
2023/09/22 10:15:15;;;;;;;3.05;1.75;;;23.00;99.90;;;;;;5052614;28;20056;-80
2023/09/22 10:17:41;;;;;;;5.03;2.00;;;23.30;99.90;;;;;;5055695;28;20046;-78
2023/09/22 10:20:11;;;;;;;3.10;1.88;;;23.30;99.90;;;;;;5039776;28;20362;-81
2023/09/22 10:22:38;;;;;;;2.30;1.90;;;23.60;99.90;;;;;;5032612;28;20044;-79
2023/09/22 10:25:13;;;;;;;3.63;1.50;;;23.60;99.90;;;;;;5032524;28;20092;-80
2023/09/22 10:27:55;;;;;;;2.10;1.65;;;23.10;99.90;;;;;;5032462;28;20054;-80
2023/09/22 10:30:22;;;;;;;2.92;1.73;;;23.20;99.90;;;;;;5032403;28;20119;-78
2023/09/22 10:32:48;;;;;;;3.13;1.75;;;22.20;99.90;;;;;;5032124;28;20099;-79
2023/09/22 10:35:40;;;;;;;1.92;1.67;;;21.50;99.90;;;;;;5032120;28;20045;-81
2023/09/22 10:38:06;;;;;;;1.60;1.50;;;21.00;99.90;;;;;;5032414;28;20064;-78
2023/09/22 10:40:32;;;;;;;2.33;1.52;;;21.00;99.90;;;;;;5032535;28;20050;-81
2023/09/22 10:43:02;;;;;;;2.10;1.60;;;20.30;99.90;;;;;;5031791;28;20041;-81
2023/09/22 10:45:29;;;;;;;2.05;1.95;;;19.90;99.90;;;;;;5032637;28;20049;-82
2023/09/22 10:47:58;;;;;;;1.30;1.20;;;19.30;99.90;;;;;;5032101;28;20046;-83
2023/09/22 10:50:26;;;;;;;1.42;1.25;;;19.00;99.90;;;;;;5014455;28;20041;-82
2023/09/22 10:52:55;;;;;;;2.13;1.23;;;18.80;99.90;;;;;;5032340;28;20081;-82
2023/09/22 10:55:31;;;;;;;1.55;1.42;;;18.80;99.90;;;;;;5032126;28;20120;-82
2023/09/22 10:57:58;;;;;;;2.85;1.40;;;18.80;99.90;;;;;;5032005;28;20439;-82
2023/09/22 11:00:25;;;;;;;3.53;1.50;;;18.70;99.90;;;;;;5031504;28;20096;-83
2023/09/22 11:02:51;;;;;;;2.75;1.60;;;18.90;99.90;;;;;;5033739;28;20085;-85
2023/09/22 11:05:17;;;;;;;3.35;1.38;;;19.00;99.90;;;;;;5036464;28;20041;-81
2023/09/22 11:07:44;;;;;;;2.72;1.30;;;19.10;99.90;;;;;;5035256;28;20505;-82
2023/09/22 11:10:18;;;;;;;1.95;1.70;;;19.00;99.90;;;;;;5034566;28;20080;-85
2023/09/22 11:12:48;;;;;;;1.65;1.23;;;18.90;99.90;;;;;;5035761;28;20528;-83
2023/09/22 11:15:14;;;;;;;1.55;1.30;;;18.80;99.90;;;;;;5035929;28;20099;-82
2023/09/22 11:17:42;;;;;;;1.45;1.33;;;18.90;99.90;;;;;;5035534;28;20136;-82
2023/09/22 11:20:18;;;;;;;2.13;1.50;;;19.00;99.90;;;;;;5034429;28;20114;-82
2023/09/22 11:22:44;;;;;;;3.55;1.27;;;19.20;99.90;;;;;;5034636;28;20053;-81
2023/09/22 11:25:10;;;;;;;2.15;1.92;;;19.30;99.90;;;;;;5035422;28;20045;-84
2023/09/22 11:27:44;;;;;;;1.50;1.40;;;19.30;99.90;;;;;;5035441;28;20064;-80
2023/09/22 11:30:16;;;;;;;2.13;1.75;;;19.30;99.90;;;;;;5035314;28;20049;-83
2023/09/22 11:32:43;;;;;;;1.70;1.40;;;19.50;99.90;;;;;;5035848;28;20056;-80
2023/09/22 11:35:10;;;;;;;2.15;1.63;;;19.50;99.90;;;;;;5035168;28;20124;-84
2023/09/22 11:37:36;;;;;;;1.85;1.50;;;19.50;99.90;;;;;;5035368;28;20041;-83
2023/09/22 11:40:13;;;;;;;1.95;1.80;;;19.30;99.90;;;;;;5035639;28;20453;-85
2023/09/22 11:42:44;;;;;;;1.45;1.35;;;19.10;99.90;;;;;;5035512;28;20042;-83
2023/09/22 11:45:10;;;;;;;1.70;1.60;;;19.10;99.90;;;;;;5035714;28;20049;-82
2023/09/22 11:47:36;;;;;;;3.03;1.92;;;19.30;99.90;;;;;;5034774;28;20496;-81
2023/09/22 11:50:03;;;;;;;2.63;1.77;;;19.30;99.90;;;;;;5035047;28;20473;-82
2023/09/22 11:52:31;;;;;;;1.88;1.77;;;19.20;99.90;;;;;;5034913;28;20080;-81
2023/09/22 11:54:57;;;;;;;3.53;1.67;;;19.20;99.90;;;;;;5034875;28;20045;-83
2023/09/22 11:57:22;;;;;;;2.50;1.90;;;19.00;99.90;;;;;;5033824;28;20056;-82
2023/09/22 11:59:57;;;;;;;1.50;1.40;;;18.90;99.90;;;;;;5034481;28;20120;-81
2023/09/22 12:02:23;;;;;;;1.80;1.70;;;18.70;99.90;;;;;;5034577;28;20134;-83
2023/09/22 12:04:48;;;;;;;2.38;2.05;;;18.50;99.90;;;;;;5034758;28;20085;-80
2023/09/22 12:07:14;;;;;;;1.85;1.75;;;18.60;99.90;;;;;;5034611;28;20049;-82
2023/09/22 12:09:40;;;;;;;2.53;2.15;;;18.50;99.90;;;;;;5034930;28;20049;-84
2023/09/22 12:12:05;;;;;;;2.58;1.83;;;18.50;99.90;;;;;;5034572;28;20051;-82
2023/09/22 12:14:31;;;;;;;2.05;1.60;;;18.50;99.90;;;;;;5034475;28;20495;-82
2023/09/22 12:16:57;;;;;;;2.67;2.13;;;18.50;99.90;;;;;;5034503;28;20045;-81
2023/09/22 12:19:25;;;;;;;2.17;1.90;;;18.70;99.90;;;;;;5034590;28;20053;-82
2023/09/22 12:21:50;;;;;;;3.67;2.15;;;18.60;99.90;;;;;;5034293;28;20130;-82
2023/09/22 12:24:16;;;;;;;5.57;1.77;;;18.60;99.90;;;;;;5034767;28;20438;-83
2023/09/22 12:26:42;;;;;;;3.67;1.90;;;18.60;99.90;;;;;;5034349;28;20496;-82
2023/09/22 12:29:08;;;;;;;2.20;2.10;;;18.50;99.90;;;;;;5034578;28;20492;-83
2023/09/22 12:31:35;;;;;;;2.70;1.85;;;18.50;99.90;;;;;;5034164;28;20043;-83
2023/09/22 12:34:01;;;;;;;2.40;2.20;;;18.40;99.90;;;;;;5034070;28;20045;-84
2023/09/22 12:36:27;;;;;;;3.78;1.83;;;18.40;99.90;;;;;;5033045;28;20425;-82